createdAt,value
2023-04-23T00:00:16.034Z,95098.00
2023-04-23T00:01:20.588Z,95104.28
2023-04-23T00:02:23.447Z,95106.28
2023-04-23T00:03:29.114Z,95095.69
2023-04-23T00:04:34.816Z,95104.50
2023-04-23T00:05:38.424Z,95103.72
2023-04-23T00:06:42.747Z,95098.97
2023-04-23T00:07:45.958Z,95107.72
2023-04-23T00:08:48.835Z,95096.66
2023-04-23T00:09:53.962Z,95105.44
2023-04-23T00:10:56.459Z,95104.69
2023-04-23T00:12:00.045Z,95097.94
2023-04-23T00:13:02.651Z,95092.13
2023-04-23T00:14:06.093Z,95099.16
2023-04-23T00:15:09.751Z,95093.34
2023-04-23T00:16:14.322Z,95092.59
2023-04-23T00:17:16.292Z,95085.56
2023-04-23T00:18:20.013Z,95086.03
2023-04-23T00:19:21.907Z,95087.53
2023-04-23T00:20:26.147Z,95092.31
2023-04-23T00:21:28.236Z,95086.03
2023-04-23T00:22:31.304Z,95085.28
2023-04-23T00:23:33.153Z,95076.19
2023-04-23T00:24:38.958Z,95084.50
2023-04-23T00:25:41.077Z,95084.50
2023-04-23T00:26:44.222Z,95077.44
2023-04-23T00:27:46.178Z,95077.44
2023-04-23T00:28:49.171Z,95086.22
2023-04-23T00:29:51.384Z,95080.69
2023-04-23T00:30:54.338Z,95077.16
2023-04-23T00:31:56.325Z,95067.38
2023-04-23T00:32:59.270Z,95071.34
2023-04-23T00:34:01.289Z,95077.63
2023-04-23T00:35:04.514Z,95071.34
2023-04-23T00:36:09.757Z,95067.09
2023-04-23T00:37:11.637Z,95074.63
2023-04-23T00:38:14.478Z,95073.84
2023-04-23T00:39:16.663Z,95073.84
2023-04-23T00:40:20.570Z,95065.28
2023-04-23T00:41:23.860Z,95070.41
2023-04-23T00:42:26.918Z,95067.66
2023-04-23T00:43:28.767Z,95068.88
2023-04-23T00:44:31.814Z,95068.88
2023-04-23T00:45:33.797Z,95066.13
2023-04-23T00:46:37.130Z,95066.13
2023-04-23T00:47:40.758Z,95067.38
2023-04-23T00:48:44.835Z,95066.59
2023-04-23T00:49:46.929Z,95065.84
2023-04-23T00:50:49.806Z,95069.84
2023-04-23T00:51:53.042Z,95068.31
2023-04-23T00:52:55.880Z,95060.81
2023-04-23T00:53:57.969Z,95056.50
2023-04-23T00:55:00.984Z,95062.03
2023-04-23T00:56:05.424Z,95057.25
2023-04-23T00:57:09.803Z,95060.53
2023-04-23T00:58:11.906Z,95059.75
2023-04-23T00:59:14.925Z,95054.22
2023-04-23T01:00:17.883Z,95053.47
2023-04-23T01:01:21.722Z,95059.75
2023-04-23T01:02:24.786Z,95053.97
2023-04-23T01:03:29.812Z,95052.44
2023-04-23T01:04:32.694Z,95051.66
2023-04-23T01:05:35.639Z,95057.94
2023-04-23T01:06:37.605Z,95055.19
2023-04-23T01:07:42.976Z,95050.13
2023-04-23T01:08:45.982Z,95056.91
2023-04-23T01:09:49.956Z,95047.13
2023-04-23T01:10:54.406Z,95043.56
2023-04-23T01:11:58.003Z,95058.63
2023-04-23T01:13:01.291Z,95051.56
2023-04-23T01:14:03.613Z,95055.59
2023-04-23T01:15:08.818Z,95062.63
2023-04-23T01:16:11.408Z,95061.88
2023-04-23T01:17:14.409Z,95054.84
2023-04-23T01:18:16.288Z,95045.78
2023-04-23T01:19:19.681Z,95047.03
2023-04-23T01:20:22.929Z,95045.50
2023-04-23T01:21:26.554Z,95049.50
2023-04-23T01:22:29.787Z,95055.03
2023-04-23T01:23:32.631Z,95056.28
2023-04-23T01:24:34.659Z,95059.81
2023-04-23T01:25:37.506Z,95057.78
2023-04-23T01:26:39.724Z,95060.56
2023-04-23T01:27:42.750Z,95058.53
2023-04-23T01:28:46.019Z,95043.97
2023-04-23T01:29:49.269Z,95046.00
2023-04-23T01:30:51.691Z,95051.50
2023-04-23T01:31:55.756Z,95059.03
2023-04-23T01:32:58.648Z,95059.03
2023-04-23T01:34:02.016Z,95060.56
2023-04-23T01:35:04.805Z,95056.28
2023-04-23T01:36:08.699Z,95052.25
2023-04-23T01:37:11.585Z,95054.28
2023-04-23T01:38:16.008Z,95046.47
2023-04-23T01:39:18.281Z,95050.47
2023-04-23T01:40:21.871Z,95044.66
2023-04-23T01:41:23.945Z,95057.72
2023-04-23T01:42:26.861Z,95051.41
2023-04-23T01:43:29.133Z,95049.91
2023-04-23T01:44:31.988Z,95062.47
2023-04-23T01:45:33.848Z,95061.25
2023-04-23T01:46:36.940Z,95065.22
2023-04-23T01:47:39.150Z,95064.00
2023-04-23T01:48:42.343Z,95066.47
2023-04-23T01:49:44.267Z,95064.97
2023-04-23T01:50:47.181Z,95063.44
2023-04-23T01:51:49.493Z,95065.44
2023-04-23T01:52:52.401Z,95065.91
2023-04-23T01:53:56.632Z,95060.38
2023-04-23T01:54:59.480Z,95054.09
2023-04-23T01:56:02.499Z,95050.31
2023-04-23T01:57:05.613Z,95057.84
2023-04-23T01:58:07.872Z,95052.78
2023-04-23T01:59:10.732Z,95050.78
2023-04-23T02:00:14.902Z,95052.78
2023-04-23T02:01:17.797Z,95055.56
2023-04-23T02:02:21.064Z,95063.84
2023-04-23T02:03:24.879Z,95057.56
2023-04-23T02:04:27.455Z,95060.78
2023-04-23T02:05:31.620Z,95055.25
2023-04-23T02:06:33.499Z,95058.50
2023-04-23T02:07:36.968Z,95052.22
2023-04-23T02:08:39.329Z,95057.47
2023-04-23T02:09:43.575Z,95060.22
2023-04-23T02:10:45.436Z,95057.16
2023-04-23T02:11:48.320Z,95062.97
2023-04-23T02:12:51.055Z,95068.50
2023-04-23T02:13:53.896Z,95065.44
2023-04-23T02:14:55.753Z,95063.44
2023-04-23T02:15:58.727Z,95063.91
2023-04-23T02:17:00.591Z,95063.16
2023-04-23T02:18:03.519Z,95062.41
2023-04-23T02:19:05.750Z,95066.69
2023-04-23T02:20:10.457Z,95073.47
2023-04-23T02:21:13.168Z,95078.19
2023-04-23T02:22:16.148Z,95070.69
2023-04-23T02:23:18.056Z,95071.44
2023-04-23T02:24:20.909Z,95069.91
2023-04-23T02:25:24.163Z,95082.50
2023-04-23T02:26:28.991Z,95082.50
2023-04-23T02:27:30.963Z,95068.41
2023-04-23T02:28:33.851Z,95076.69
2023-04-23T02:29:36.807Z,95062.88
2023-04-23T02:30:45.239Z,95073.19
2023-04-23T02:31:47.208Z,95070.88
2023-04-23T02:32:50.377Z,95074.13
2023-04-23T02:33:52.476Z,95074.13
2023-04-23T02:34:57.716Z,95063.06
2023-04-23T02:35:59.762Z,95074.13
2023-04-23T02:37:04.939Z,95075.66
2023-04-23T02:38:06.944Z,95070.88
2023-04-23T02:39:10.932Z,95074.91
2023-04-23T02:40:12.859Z,95061.56
2023-04-23T02:41:17.082Z,95071.06
2023-04-23T02:42:18.898Z,95071.06
2023-04-23T02:43:21.674Z,95078.59
2023-04-23T02:44:23.807Z,95080.13
2023-04-23T02:45:26.711Z,95063.28
2023-04-23T02:46:28.603Z,95072.31
2023-04-23T02:47:31.613Z,95075.06
2023-04-23T02:48:35.973Z,95075.06
2023-04-23T02:49:38.815Z,95079.84
2023-04-23T02:50:41.721Z,95078.59
2023-04-23T02:51:43.570Z,95076.31
2023-04-23T02:52:47.805Z,95075.84
2023-04-23T02:53:49.700Z,95076.31
2023-04-23T02:54:52.593Z,95079.84
2023-04-23T02:55:54.558Z,95081.84
2023-04-23T02:56:58.908Z,95080.59
2023-04-23T02:58:01.250Z,95085.38
2023-04-23T02:59:07.162Z,95082.78
2023-04-23T03:00:12.262Z,95084.72
2023-04-23T03:01:18.070Z,95084.44
2023-04-23T03:02:20.223Z,95085.38
2023-04-23T03:03:26.573Z,95078.13
2023-04-23T03:04:28.838Z,95080.13
2023-04-23T03:05:31.612Z,95082.88
2023-04-23T03:06:34.470Z,95081.66
2023-04-23T03:07:37.298Z,95080.88
2023-04-23T03:08:39.172Z,95084.97
2023-04-23T03:09:43.393Z,95083.75
2023-04-23T03:10:45.748Z,95085.25
2023-04-23T03:11:49.149Z,95086.50
2023-04-23T03:12:52.389Z,95080.22
2023-04-23T03:13:55.585Z,95082.50
2023-04-23T03:14:57.491Z,95083.75
2023-04-23T03:16:02.540Z,95087.28
2023-04-23T03:17:04.990Z,95079.75
2023-04-23T03:18:08.684Z,95081.75
2023-04-23T03:19:12.060Z,95086.50
2023-04-23T03:20:16.246Z,95083.47
2023-04-23T03:21:18.119Z,95086.22
2023-04-23T03:22:21.061Z,95085.94
2023-04-23T03:23:23.137Z,95085.94
2023-04-23T03:24:27.189Z,95086.69
2023-04-23T03:25:30.474Z,95087.19
2023-04-23T03:26:32.378Z,95081.66
2023-04-23T03:27:35.327Z,95083.66
2023-04-23T03:28:39.732Z,95082.88
2023-04-23T03:29:42.110Z,95085.38
2023-04-23T03:30:45.216Z,95089.38
2023-04-23T03:31:47.111Z,95088.41
2023-04-23T03:32:51.737Z,95089.47
2023-04-23T03:33:54.075Z,95090.25
2023-04-23T03:35:04.208Z,95093.00
2023-04-23T03:36:07.391Z,95090.25
2023-04-23T03:37:09.287Z,95085.94
2023-04-23T03:38:14.110Z,95096.22
2023-04-23T03:39:17.073Z,95096.69
2023-04-23T03:40:30.984Z,95104.22
2023-04-23T03:41:36.583Z,95100.41
2023-04-23T03:42:39.476Z,95091.84
2023-04-23T03:43:43.354Z,95094.53
2023-04-23T03:44:54.505Z,95099.66
2023-04-23T03:45:56.567Z,95096.59
2023-04-23T03:46:59.564Z,95098.13
2023-04-23T03:48:01.507Z,95099.66
2023-04-23T03:49:04.527Z,95105.16
2023-04-23T03:50:09.077Z,95109.94
2023-04-23T03:51:11.919Z,95110.41
2023-04-23T03:52:18.225Z,95108.88
2023-04-23T03:53:21.674Z,95107.63
2023-04-23T03:54:43.684Z,95107.63
2023-04-23T03:55:50.078Z,95107.63
2023-04-23T03:56:52.174Z,95113.16
2023-04-23T03:58:01.663Z,95110.47
2023-04-23T03:59:13.341Z,95106.97
2023-04-23T04:00:16.518Z,95114.50
2023-04-23T04:01:18.904Z,95120.00
2023-04-23T04:02:22.578Z,95122.47
2023-04-23T04:03:29.156Z,95128.00
2023-04-23T04:04:32.892Z,95128.88
2023-04-23T04:05:35.021Z,95131.44
2023-04-23T04:06:37.892Z,95130.28
2023-04-23T04:07:40.309Z,95134.09
2023-04-23T04:08:43.185Z,95128.56
2023-04-23T04:09:47.132Z,95138.06
2023-04-23T04:10:49.943Z,95132.56
2023-04-23T04:11:53.386Z,95130.59
2023-04-23T04:12:56.375Z,95136.38
2023-04-23T04:13:58.565Z,95129.34
2023-04-23T04:15:03.255Z,95135.59
2023-04-23T04:16:05.642Z,95134.84
2023-04-23T04:17:09.121Z,95140.84
2023-04-23T04:18:10.995Z,95137.31
2023-04-23T04:19:13.822Z,95133.06
2023-04-23T04:20:15.682Z,95139.69
2023-04-23T04:21:19.033Z,95142.16
2023-04-23T04:22:20.946Z,95139.41
2023-04-23T04:23:23.877Z,95137.09
2023-04-23T04:24:26.321Z,95141.88
2023-04-23T04:25:30.120Z,95137.59
2023-04-23T04:26:32.439Z,95138.34
2023-04-23T04:27:35.334Z,95137.22
2023-04-23T04:28:37.652Z,95134.75
2023-04-23T04:29:40.987Z,95141.50
2023-04-23T04:30:44.771Z,95143.03
2023-04-23T04:31:47.734Z,95136.75
2023-04-23T04:32:50.839Z,95140.00
2023-04-23T04:33:53.786Z,95135.59
2023-04-23T04:34:55.651Z,95138.81
2023-04-23T04:35:59.498Z,95134.56
2023-04-23T04:37:01.411Z,95136.34
2023-04-23T04:38:04.278Z,95143.69
2023-04-23T04:39:06.560Z,95140.06
2023-04-23T04:40:11.482Z,95140.06
2023-04-23T04:41:13.508Z,95143.38
2023-04-23T04:42:16.635Z,95140.06
2023-04-23T04:43:18.498Z,95140.38
2023-04-23T04:44:21.435Z,95139.28
2023-04-23T04:45:23.910Z,95142.59
2023-04-23T04:46:29.224Z,95140.50
2023-04-23T04:47:31.992Z,95138.38
2023-04-23T04:48:34.912Z,95146.34
2023-04-23T04:49:37.106Z,95147.31
2023-04-23T04:50:39.997Z,95153.88
2023-04-23T04:51:41.860Z,95144.25
2023-04-23T04:52:44.833Z,95149.13
2023-04-23T04:53:46.745Z,95144.56
2023-04-23T04:54:49.534Z,95153.19
2023-04-23T04:55:51.836Z,95157.94
2023-04-23T04:56:54.647Z,95142.91
2023-04-23T04:57:56.492Z,95153.94
2023-04-23T04:58:59.300Z,95157.00
2023-04-23T05:00:05.088Z,95159.00
2023-04-23T05:01:07.110Z,95157.38
2023-04-23T05:02:11.399Z,95161.03
2023-04-23T05:03:14.506Z,95157.06
2023-04-23T05:04:17.852Z,95154.94
2023-04-23T05:05:20.375Z,95159.69
2023-04-23T05:06:23.374Z,95156.19
2023-04-23T05:07:25.244Z,95162.06
2023-04-23T05:08:28.629Z,95159.75
2023-04-23T05:09:30.478Z,95161.00
2023-04-23T05:10:33.368Z,95165.72
2023-04-23T05:11:35.846Z,95158.09
2023-04-23T05:12:41.416Z,95168.34
2023-04-23T05:13:43.913Z,95165.31
2023-04-23T05:14:46.789Z,95159.78
2023-04-23T05:15:49.189Z,95168.72
2023-04-23T05:16:52.040Z,95165.81
2023-04-23T05:17:55.866Z,95167.22
2023-04-23T05:18:58.735Z,95168.56
2023-04-23T05:20:00.696Z,95175.03
2023-04-23T05:21:06.895Z,95169.81
2023-04-23T05:22:08.822Z,95173.31
2023-04-23T05:23:11.753Z,95174.38
2023-04-23T05:24:14.631Z,95170.72
2023-04-23T05:25:16.515Z,95169.31
2023-04-23T05:26:19.539Z,95167.94
2023-04-23T05:27:21.469Z,95172.56
2023-04-23T05:28:24.276Z,95177.13
2023-04-23T05:29:26.124Z,95179.91
2023-04-23T05:30:29.038Z,95178.69
2023-04-23T05:31:31.923Z,95183.72
2023-04-23T05:32:33.845Z,95185.72
2023-04-23T05:33:49.093Z,95186.00
2023-04-23T05:34:52.017Z,95180.50
2023-04-23T05:35:55.330Z,95194.56
2023-04-23T05:36:57.255Z,95187.53
2023-04-23T05:38:00.154Z,95190.56
2023-04-23T05:39:02.208Z,95189.06
2023-04-23T05:40:07.252Z,95186.31
2023-04-23T05:41:09.185Z,95187.06
2023-04-23T05:42:13.003Z,95181.25
2023-04-23T05:43:15.865Z,95188.31
2023-04-23T05:44:17.722Z,95182.00
2023-04-23T05:45:21.425Z,95186.31
2023-04-23T05:46:26.191Z,95185.84
2023-04-23T05:47:29.868Z,95181.53
2023-04-23T05:48:31.799Z,95176.78
2023-04-23T05:49:36.076Z,95185.84
2023-04-23T05:50:37.957Z,95185.84
2023-04-23T05:51:40.880Z,95182.31
2023-04-23T05:52:42.743Z,95187.81
2023-04-23T05:53:45.834Z,95185.06
2023-04-23T05:54:47.764Z,95183.84
2023-04-23T05:55:50.695Z,95188.59
2023-04-23T05:56:54.549Z,95186.59
2023-04-23T05:57:57.752Z,95185.84
2023-04-23T05:58:59.774Z,95187.34
2023-04-23T06:00:03.336Z,95192.13
2023-04-23T06:01:15.113Z,95179.84
2023-04-23T06:02:17.084Z,95181.09
2023-04-23T06:03:20.312Z,95186.59
2023-04-23T06:04:22.681Z,95185.84
2023-04-23T06:05:27.323Z,95187.53
2023-04-23T06:06:29.359Z,95191.53
2023-04-23T06:07:32.210Z,95185.25
2023-04-23T06:08:34.487Z,95187.72
2023-04-23T06:09:37.507Z,95188.47
2023-04-23T06:10:39.409Z,95193.97
2023-04-23T06:11:42.361Z,95188.91
2023-04-23T06:12:44.223Z,95188.16
2023-04-23T06:13:47.091Z,95188.16
2023-04-23T06:14:49.024Z,95192.16
2023-04-23T06:15:52.044Z,95190.63
2023-04-23T06:16:53.948Z,95190.63
2023-04-23T06:17:56.867Z,95190.63
2023-04-23T06:18:58.984Z,95200.13
2023-04-23T06:20:01.879Z,95198.91
2023-04-23T06:21:06.116Z,95205.94
2023-04-23T06:22:09.079Z,95198.91
2023-04-23T06:23:12.569Z,95203.66
2023-04-23T06:24:15.542Z,95197.38
2023-04-23T06:25:17.443Z,95202.91
2023-04-23T06:26:20.738Z,95194.63
2023-04-23T06:27:24.134Z,95201.34
2023-04-23T06:28:29.279Z,95195.84
2023-04-23T06:29:49.620Z,95198.31
2023-04-23T06:30:52.599Z,95190.81
2023-04-23T06:31:55.216Z,95193.09
2023-04-23T06:32:58.075Z,95191.13
2023-04-23T06:34:00.027Z,95190.31
2023-04-23T06:35:04.381Z,95191.13
2023-04-23T06:36:10.877Z,95194.16
2023-04-23T06:37:13.713Z,95193.38
2023-04-23T06:38:15.685Z,95203.66
2023-04-23T06:39:18.605Z,95197.38
2023-04-23T06:40:20.902Z,95196.63
2023-04-23T06:41:23.898Z,95199.38
2023-04-23T06:42:39.322Z,95195.09
2023-04-23T06:43:53.347Z,95199.09
2023-04-23T06:44:59.238Z,95188.06
2023-04-23T06:46:02.211Z,95188.81
2023-04-23T06:47:04.233Z,95190.81
2023-04-23T06:48:07.705Z,95193.56
2023-04-23T06:49:09.725Z,95190.81
2023-04-23T06:50:12.589Z,95189.28
2023-04-23T06:51:16.390Z,95201.94
2023-04-23T06:52:19.263Z,95190.81
2023-04-23T06:53:22.055Z,95193.56
2023-04-23T06:54:24.892Z,95186.06
2023-04-23T06:55:27.217Z,95188.81
2023-04-23T06:56:30.108Z,95197.84
2023-04-23T06:57:33.056Z,95186.06
2023-04-23T06:58:34.901Z,95183.31
2023-04-23T06:59:46.730Z,95190.31
2023-04-23T07:00:49.389Z,95183.31
2023-04-23T07:01:54.540Z,95177.78
2023-04-23T07:02:56.567Z,95180.53
2023-04-23T07:03:59.489Z,95186.06
2023-04-23T07:05:02.637Z,95179.03
2023-04-23T07:06:04.744Z,95185.75
2023-04-23T07:07:08.953Z,95189.75
2023-04-23T07:08:10.783Z,95188.06
2023-04-23T07:09:13.937Z,95183.31
2023-04-23T07:10:18.119Z,95189.75
2023-04-23T07:11:20.586Z,95188.22
2023-04-23T07:12:23.509Z,95183.94
2023-04-23T07:13:25.456Z,95185.94
2023-04-23T07:14:28.507Z,95186.69
2023-04-23T07:15:30.428Z,95186.69
2023-04-23T07:16:34.027Z,95183.94
2023-04-23T07:17:36.260Z,95181.19
2023-04-23T07:18:39.148Z,95186.69
2023-04-23T07:19:41.100Z,95187.91
2023-04-23T07:20:43.899Z,95179.66
2023-04-23T07:21:45.804Z,95182.41
2023-04-23T07:22:50.044Z,95188.81
2023-04-23T07:23:51.875Z,95186.69
2023-04-23T07:24:54.746Z,95182.41
2023-04-23T07:25:57.602Z,95182.41
2023-04-23T07:27:00.938Z,95181.66
2023-04-23T07:28:02.961Z,95178.88
2023-04-23T07:29:07.825Z,95187.91
2023-04-23T07:30:10.543Z,95186.41
2023-04-23T07:31:13.336Z,95181.66
2023-04-23T07:32:15.326Z,95182.88
2023-04-23T07:33:18.619Z,95186.41
2023-04-23T07:34:20.554Z,95180.13
2023-04-23T07:35:23.819Z,95187.63
2023-04-23T07:36:25.880Z,95183.66
2023-04-23T07:37:28.717Z,95183.66
2023-04-23T07:38:32.099Z,95185.66
2023-04-23T07:39:35.379Z,95182.09
2023-04-23T07:40:37.276Z,95189.16
2023-04-23T07:41:40.233Z,95187.63
2023-04-23T07:42:42.131Z,95193.13
2023-04-23T07:43:44.949Z,95188.88
2023-04-23T07:44:46.783Z,95183.34
2023-04-23T07:45:49.593Z,95188.56
2023-04-23T07:46:53.120Z,95188.56
2023-04-23T07:47:55.004Z,95181.53
2023-04-23T07:48:57.826Z,95194.06
2023-04-23T07:49:59.676Z,95188.56
2023-04-23T07:51:02.988Z,95187.06
2023-04-23T07:52:04.853Z,95189.03
2023-04-23T07:53:07.686Z,95184.00
2023-04-23T07:54:11.545Z,95182.75
2023-04-23T07:55:14.429Z,95184.00
2023-04-23T07:56:16.214Z,95185.50
2023-04-23T07:57:19.269Z,95180.00
2023-04-23T07:58:21.366Z,95185.50
2023-04-23T07:59:24.199Z,95183.25
2023-04-23T08:00:26.143Z,95183.25
2023-04-23T08:01:29.034Z,95189.50
2023-04-23T08:02:31.012Z,95184.00
2023-04-23T08:03:34.100Z,95185.34
2023-04-23T08:04:36.234Z,95186.41
2023-04-23T08:05:41.252Z,95184.41
2023-04-23T08:06:43.258Z,95178.88
2023-04-23T08:07:46.133Z,95181.34
2023-04-23T08:08:48.036Z,95181.41
2023-04-23T08:09:52.307Z,95182.00
2023-04-23T08:10:54.204Z,95180.00
2023-04-23T08:11:57.574Z,95181.53
2023-04-23T08:12:59.475Z,95175.25
2023-04-23T08:14:02.575Z,95168.97
2023-04-23T08:15:05.083Z,95174.47
2023-04-23T08:16:14.715Z,95165.00
2023-04-23T08:17:16.671Z,95165.00
2023-04-23T08:18:19.489Z,95164.50
2023-04-23T08:19:21.346Z,95168.81
2023-04-23T08:20:24.293Z,95165.56
2023-04-23T08:21:26.982Z,95164.06
2023-04-23T08:22:29.781Z,95162.06
2023-04-23T08:23:31.763Z,95160.06
2023-04-23T08:24:34.628Z,95157.31
2023-04-23T08:25:38.808Z,95156.09
2023-04-23T08:26:40.937Z,95156.38
2023-04-23T08:27:43.896Z,95157.91
2023-04-23T08:28:46.554Z,95158.66
2023-04-23T08:29:49.479Z,95154.38
2023-04-23T08:30:51.408Z,95158.19
2023-04-23T08:31:54.300Z,95151.94
2023-04-23T08:32:58.139Z,95161.25
2023-04-23T08:34:00.124Z,95159.75
2023-04-23T08:35:03.064Z,95150.22
2023-04-23T08:36:05.246Z,95153.72
2023-04-23T08:37:13.896Z,95157.25
2023-04-23T08:38:23.533Z,95164.31
2023-04-23T08:39:25.611Z,95158.50
2023-04-23T08:40:31.982Z,95161.25
2023-04-23T08:41:39.907Z,95159.75
2023-04-23T08:42:46.333Z,95165.25
2023-04-23T08:43:54.809Z,95160.50
2023-04-23T08:44:58.536Z,95164.00
2023-04-23T08:46:04.241Z,95159.75
2023-04-23T08:47:08.731Z,95163.25
2023-04-23T08:48:10.982Z,95161.25
2023-04-23T08:49:16.306Z,95158.50
2023-04-23T08:50:20.880Z,95150.22
2023-04-23T08:51:26.112Z,95155.75
2023-04-23T08:52:34.245Z,95150.22
2023-04-23T08:53:38.421Z,95153.28
2023-04-23T08:54:46.322Z,95147.75
2023-04-23T08:55:50.622Z,95152.03
2023-04-23T08:56:57.339Z,95148.53
2023-04-23T08:58:01.358Z,95149.28
2023-04-23T08:59:03.980Z,95143.31
2023-04-23T09:00:10.114Z,95146.06
2023-04-23T09:01:12.539Z,95142.84
2023-04-23T09:02:17.812Z,95137.78
2023-04-23T09:03:20.808Z,95134.88
2023-04-23T09:04:25.533Z,95141.91
2023-04-23T09:05:28.148Z,95144.19
2023-04-23T09:06:32.285Z,95143.41
2023-04-23T09:07:36.129Z,95141.50
2023-04-23T09:08:39.405Z,95142.25
2023-04-23T09:09:41.744Z,95138.25
2023-04-23T09:10:46.051Z,95134.28
2023-04-23T09:11:48.045Z,95133.03
2023-04-23T09:12:52.672Z,95133.31
2023-04-23T09:13:54.970Z,95139.13
2023-04-23T09:14:58.314Z,95131.91
2023-04-23T09:16:00.288Z,95132.69
2023-04-23T09:17:03.924Z,95134.50
2023-04-23T09:18:07.869Z,95140.66
2023-04-23T09:19:11.923Z,95141.22
2023-04-23T09:20:15.251Z,95130.75
2023-04-23T09:21:18.291Z,95138.09
2023-04-23T09:22:45.160Z,95131.34
2023-04-23T09:23:53.033Z,95127.34
2023-04-23T09:24:54.936Z,95134.13
2023-04-23T09:25:57.802Z,95125.38
2023-04-23T09:26:59.692Z,95129.66
2023-04-23T09:28:03.976Z,95130.41
2023-04-23T09:29:13.779Z,95126.72
2023-04-23T09:30:17.738Z,95128.53
2023-04-23T09:31:24.460Z,95125.31
2023-04-23T09:32:32.047Z,95125.31
2023-04-23T09:33:36.834Z,95122.81
2023-04-23T09:34:40.089Z,95123.59
2023-04-23T09:35:43.227Z,95121.59
2023-04-23T09:36:47.309Z,95118.06
2023-04-23T09:37:53.299Z,95112.56
2023-04-23T09:38:57.385Z,95119.28
2023-04-23T09:40:00.676Z,95107.03
2023-04-23T09:41:21.736Z,95105.50
2023-04-23T09:42:25.263Z,95105.50
2023-04-23T09:43:30.609Z,95109.50
2023-04-23T09:44:35.055Z,95114.28
2023-04-23T09:45:36.995Z,95111.69
2023-04-23T09:46:41.642Z,95101.91
2023-04-23T09:47:51.160Z,95107.88
2023-04-23T09:48:56.675Z,95101.59
2023-04-23T09:50:00.615Z,95110.63
2023-04-23T09:51:02.722Z,95107.59
2023-04-23T09:52:07.878Z,95110.63
2023-04-23T09:53:10.688Z,95104.38
2023-04-23T09:54:14.922Z,95100.06
2023-04-23T09:55:28.219Z,95109.09
2023-04-23T09:56:31.676Z,95103.31
2023-04-23T09:57:38.282Z,95093.03
2023-04-23T09:58:41.928Z,95104.81
2023-04-23T09:59:48.500Z,95104.06
2023-04-23T10:00:54.072Z,95102.53
2023-04-23T10:01:57.275Z,95100.56
2023-04-23T10:02:59.930Z,95089.53
2023-04-23T10:04:03.273Z,95089.53
2023-04-23T10:07:38.956Z,95080.75
2023-04-23T10:08:42.263Z,95089.53
2023-04-23T10:09:44.408Z,95092.16
2023-04-23T10:10:59.528Z,95082.38
2023-04-23T10:12:27.806Z,95083.88
2023-04-23T10:13:33.887Z,95077.50
2023-04-23T10:14:39.242Z,95082.75
2023-04-23T10:15:42.834Z,95084.28
2023-04-23T10:16:49.223Z,95079.16
2023-04-23T10:17:52.931Z,95076.97
2023-04-23T10:18:56.945Z,95084.00
2023-04-23T10:20:02.551Z,95076.47
2023-04-23T10:21:05.897Z,95074.78
2023-04-23T10:22:19.649Z,95076.31
2023-04-23T10:23:23.784Z,95074.47
2023-04-23T10:24:30.417Z,95076.31
2023-04-23T10:25:33.884Z,95079.38
2023-04-23T10:26:39.393Z,95075.06
2023-04-23T10:27:52.049Z,95081.84
2023-04-23T10:28:58.504Z,95076.59
2023-04-23T10:30:06.016Z,95075.81
2023-04-23T10:31:10.330Z,95078.03
2023-04-23T10:32:13.721Z,95079.38
2023-04-23T10:33:29.013Z,95075.06
2023-04-23T10:34:33.854Z,95073.84
2023-04-23T10:35:37.059Z,95068.66
2023-04-23T10:36:39.066Z,95070.94
2023-04-23T10:37:42.828Z,95075.22
2023-04-23T10:38:57.391Z,95067.72
2023-04-23T10:40:09.169Z,95064.94
2023-04-23T10:41:12.331Z,95064.50
2023-04-23T10:42:15.322Z,95063.25
2023-04-23T10:43:18.090Z,95056.50
2023-04-23T10:44:44.968Z,95065.53
2023-04-23T10:45:46.740Z,95061.53
2023-04-23T10:46:52.386Z,95058.31
2023-04-23T10:47:56.449Z,95054.31
2023-04-23T10:49:10.749Z,95056.59
2023-04-23T10:50:22.471Z,95044.63
2023-04-23T10:52:14.769Z,95051.66
2023-04-23T10:52:57.843Z,95045.19
2023-04-23T10:54:00.609Z,95038.72
2023-04-23T10:55:03.546Z,95045.78
2023-04-23T10:56:06.769Z,95041.78
2023-04-23T10:57:10.821Z,95039.00
2023-04-23T10:58:12.838Z,95041.22
2023-04-23T10:59:22.720Z,95037.22
2023-04-23T11:00:25.036Z,95037.50
2023-04-23T11:01:31.152Z,95049.19
2023-04-23T11:02:44.184Z,95035.13
2023-04-23T11:03:47.882Z,95036.34
2023-04-23T11:04:56.966Z,95030.53
2023-04-23T11:06:02.303Z,95027.50
2023-04-23T11:07:09.011Z,95028.06
2023-04-23T11:08:19.441Z,95030.81
2023-04-23T11:09:40.615Z,95033.59
2023-04-23T11:10:56.116Z,95025.13
2023-04-23T11:11:59.981Z,95024.66
2023-04-23T11:13:21.759Z,95023.72
2023-04-23T11:14:35.885Z,95022.66
2023-04-23T11:15:38.749Z,95024.94
2023-04-23T11:16:42.006Z,95024.66
2023-04-23T11:18:01.869Z,95026.19
2023-04-23T11:19:08.204Z,95023.88
2023-04-23T11:20:13.773Z,95020.94
2023-04-23T11:21:15.959Z,95012.69
2023-04-23T11:22:20.544Z,95016.94
2023-04-23T11:23:33.004Z,95017.22
2023-04-23T11:24:41.684Z,95009.81
2023-04-23T11:25:45.984Z,95012.59
2023-04-23T11:26:51.572Z,95011.34
2023-04-23T11:27:56.175Z,95013.25
2023-04-23T11:28:58.862Z,95006.31
2023-04-23T11:30:01.672Z,95006.78
2023-04-23T11:31:06.576Z,95004.59
2023-04-23T11:32:13.342Z,95002.78
2023-04-23T11:33:16.605Z,95006.41
2023-04-23T11:34:19.108Z,94990.88
2023-04-23T11:35:24.479Z,94991.94
2023-04-23T11:36:27.593Z,94983.94
2023-04-23T11:37:30.500Z,94994.78
2023-04-23T11:38:33.614Z,94991.53
2023-04-23T11:39:36.462Z,94983.56
2023-04-23T11:40:40.609Z,94983.56
2023-04-23T11:41:43.839Z,94982.31
2023-04-23T11:42:47.429Z,94977.00
2023-04-23T11:43:50.288Z,94983.94
2023-04-23T11:44:53.981Z,94971.75
2023-04-23T11:45:56.321Z,94971.56
2023-04-23T11:47:01.938Z,94966.06
2023-04-23T11:48:06.780Z,94977.84
2023-04-23T11:49:10.495Z,94968.81
2023-04-23T11:50:18.255Z,94962.25
2023-04-23T11:51:26.770Z,94966.06
2023-04-23T11:52:29.578Z,94962.03
2023-04-23T11:53:31.650Z,94960.31
2023-04-23T11:54:34.541Z,94960.31
2023-04-23T11:55:36.801Z,94953.59
2023-04-23T11:56:39.694Z,94953.88
2023-04-23T11:57:43.987Z,94955.38
2023-04-23T11:58:46.237Z,94957.09
2023-04-23T11:59:49.206Z,94945.59
2023-04-23T12:00:58.160Z,94952.16
2023-04-23T12:02:01.320Z,94954.63
2023-04-23T12:03:07.688Z,94953.88
2023-04-23T12:04:11.458Z,94954.63
2023-04-23T12:05:14.695Z,94952.53
2023-04-23T12:06:17.874Z,94954.06
2023-04-23T12:07:26.430Z,94949.50
2023-04-23T12:08:34.923Z,94948.25
2023-04-23T12:09:38.280Z,94947.78
2023-04-23T12:10:45.156Z,94949.00
2023-04-23T12:11:50.800Z,94946.25
2023-04-23T12:12:53.113Z,94950.03
2023-04-23T12:13:56.051Z,94937.78
2023-04-23T12:15:04.067Z,94946.06
2023-04-23T12:16:08.589Z,94939.00
2023-04-23T12:17:12.404Z,94935.59
2023-04-23T12:18:16.933Z,94935.38
2023-04-23T12:19:21.164Z,94932.44
2023-04-23T12:20:24.363Z,94930.22
2023-04-23T12:21:28.591Z,94925.81
2023-04-23T12:22:31.536Z,94922.16
2023-04-23T12:23:35.919Z,94929.00
2023-04-23T12:24:48.377Z,94922.22
2023-04-23T12:25:54.567Z,94921.19
2023-04-23T12:27:00.617Z,94926.44
2023-04-23T12:28:04.912Z,94913.59
2023-04-23T12:29:08.616Z,94912.56
2023-04-23T12:30:12.000Z,94923.06
2023-04-23T12:31:20.874Z,94907.47
2023-04-23T12:32:25.744Z,94914.22
2023-04-23T12:33:30.749Z,94910.41
2023-04-23T12:34:33.697Z,94904.41